Time;durP1;ratioP1;P1;durP2;ratioP2;P2;SDS_P1;SDS_P2;PMS_P1;PMS_P2;Temp;Humidity;BMP_temperature;BMP_pressure;BME280_temperature;BME280_humidity;BME280_pressure;Samples;Min_cycle;Max_cycle;Signal;HPM_P1;HPM_P2
2020/12/19 00:01:53;;;;;;;17.37;15.43;;;;;;;5.55;77.76;101540.09;5036398;28;20409;-75
2020/12/19 00:04:19;;;;;;;17.70;14.27;;;;;;;5.50;78.19;101536.44;5037246;28;20224;-76
2020/12/19 00:06:44;;;;;;;18.93;15.17;;;;;;;5.40;78.88;101537.75;5037793;28;20470;-75
2020/12/19 00:09:10;;;;;;;16.20;14.50;;;;;;;5.16;78.82;101534.94;5035910;28;20174;-70
2020/12/19 00:11:35;;;;;;;17.00;13.93;;;;;;;5.23;78.77;101539.56;5037201;28;20658;-71
2020/12/19 00:14:00;;;;;;;20.03;15.40;;;;;;;5.31;78.16;101538.19;5037552;28;20220;-68
2020/12/19 00:16:29;;;;;;;16.60;14.50;;;;;;;5.39;78.34;101533.38;5036301;28;20439;-69
2020/12/19 00:18:54;;;;;;;18.70;15.53;;;;;;;5.31;78.01;101527.84;5036585;28;20200;-73
2020/12/19 00:21:19;;;;;;;18.03;14.43;;;;;;;5.21;78.00;101526.56;5037395;28;20391;-69
2020/12/19 00:23:45;;;;;;;18.40;14.03;;;;;;;5.25;79.14;101519.84;5036751;28;20579;-68
2020/12/19 00:26:10;;;;;;;17.13;14.80;;;;;;;5.17;78.50;101526.38;5036764;28;20213;-70
2020/12/19 00:28:35;;;;;;;16.70;14.60;;;;;;;5.11;78.60;101533.84;5037146;28;20204;-70
2020/12/19 00:31:00;;;;;;;18.10;14.37;;;;;;;5.24;78.55;101520.66;5036808;28;20180;-70
2020/12/19 00:33:26;;;;;;;21.60;15.97;;;;;;;5.03;79.05;101520.59;5036631;28;20174;-71
2020/12/19 00:35:52;;;;;;;21.23;14.97;;;;;;;5.09;78.33;101519.97;5037164;28;20383;-72
2020/12/19 00:38:17;;;;;;;18.37;14.90;;;;;;;5.24;78.46;101518.06;5036941;28;20175;-71
2020/12/19 00:40:42;;;;;;;19.87;16.53;;;;;;;5.29;77.68;101516.59;5036705;28;20244;-70
2020/12/19 00:43:07;;;;;;;20.77;15.40;;;;;;;5.17;78.52;101524.69;5037032;28;20551;-71
2020/12/19 00:45:33;;;;;;;24.57;15.80;;;;;;;5.17;78.77;101503.13;5036535;28;20217;-70
2020/12/19 00:47:58;;;;;;;20.40;14.47;;;;;;;5.03;78.95;101500.81;5036565;28;20170;-71
2020/12/19 00:50:23;;;;;;;20.00;14.80;;;;;;;5.08;78.58;101502.72;5036947;28;20551;-71
2020/12/19 00:52:49;;;;;;;18.60;15.60;;;;;;;5.10;78.78;101495.91;5036656;28;20224;-71
2020/12/19 00:55:14;;;;;;;17.73;15.20;;;;;;;5.27;78.30;101487.19;5036649;28;20182;-71
2020/12/19 00:57:39;;;;;;;18.97;15.87;;;;;;;4.86;79.39;101494.00;5037061;28;20412;-71
2020/12/19 01:00:08;;;;;;;20.10;15.13;;;;;;;4.98;79.43;101498.81;5038720;28;20615;-69
2020/12/19 01:02:37;;;;;;;16.73;14.87;;;;;;;4.87;79.25;101495.75;5040516;28;20216;-69
2020/12/19 01:05:04;;;;;;;17.10;15.00;;;;;;;5.01;78.77;101497.25;5040829;28;20510;-68
2020/12/19 01:07:30;;;;;;;18.57;15.00;;;;;;;4.92;79.36;101498.56;5040430;28;20470;-70
2020/12/19 01:09:57;;;;;;;18.30;15.73;;;;;;;4.77;79.19;101494.44;5040439;28;20421;-70
2020/12/19 01:12:22;;;;;;;17.50;14.70;;;;;;;4.77;79.61;101491.00;5040872;28;20721;-68
2020/12/19 01:14:47;;;;;;;18.17;15.37;;;;;;;4.89;79.23;101487.25;5039978;28;20478;-72
2020/12/19 01:17:12;;;;;;;17.60;15.37;;;;;;;4.70;79.59;101484.66;5038576;28;20178;-70
2020/12/19 01:19:38;;;;;;;21.57;15.87;;;;;;;4.67;79.11;101488.00;5040328;28;20443;-70
2020/12/19 01:22:03;;;;;;;21.03;15.77;;;;;;;4.60;80.16;101496.28;5040092;28;20189;-70
2020/12/19 01:24:28;;;;;;;18.80;16.00;;;;;;;4.51;80.08;101499.31;5039815;28;20229;-71
2020/12/19 01:26:54;;;;;;;23.93;16.33;;;;;;;4.58;79.89;101492.72;5040626;28;20170;-72
2020/12/19 01:29:19;;;;;;;19.60;15.97;;;;;;;4.63;79.56;101488.66;5040261;28;20170;-71
2020/12/19 01:31:44;;;;;;;20.30;17.10;;;;;;;4.86;78.29;101481.09;5040459;28;20172;-71
2020/12/19 01:34:10;;;;;;;18.70;15.30;;;;;;;4.44;79.96;101492.09;5038156;28;20245;-71
2020/12/19 01:36:35;;;;;;;20.23;16.30;;;;;;;4.64;79.24;101484.38;5039927;28;20253;-70
2020/12/19 01:39:00;;;;;;;20.47;16.10;;;;;;;4.69;79.56;101477.72;5039718;28;20235;-72
2020/12/19 01:41:26;;;;;;;17.60;15.50;;;;;;;4.68;79.33;101484.59;5040363;28;20170;-73
2020/12/19 01:43:56;;;;;;;20.97;16.70;;;;;;;4.60;79.00;101482.47;5022493;28;20170;-71
2020/12/19 01:46:55;;;;;;;20.00;16.87;;;;;;;4.78;78.75;101479.84;5039795;28;20284;-70
2020/12/19 01:49:22;;;;;;;22.23;16.43;;;;;;;4.52;79.46;101480.44;5039794;28;20405;-69
2020/12/19 01:51:50;;;;;;;22.10;17.60;;;;;;;4.50;79.51;101484.63;5039911;28;20420;-70
2020/12/19 01:54:15;;;;;;;20.90;17.00;;;;;;;4.38;80.38;101476.31;5040089;28;20837;-70
2020/12/19 01:56:44;;;;;;;22.30;17.60;;;;;;;4.59;79.01;101480.69;5039734;28;20416;-70
2020/12/19 01:59:09;;;;;;;19.53;16.63;;;;;;;4.58;79.41;101477.25;5040049;28;20190;-71
2020/12/19 02:01:45;;;;;;;21.27;18.30;;;;;;;4.51;79.44;101475.19;5039758;28;20502;-70
2020/12/19 02:04:10;;;;;;;20.93;17.00;;;;;;;4.43;79.83;101463.63;5039590;28;20173;-70
2020/12/19 02:06:36;;;;;;;23.33;17.63;;;;;;;4.36;79.64;101468.50;5039988;28;20539;-70
2020/12/19 02:09:02;;;;;;;24.27;17.97;;;;;;;4.35;80.55;101458.09;5038716;28;20570;-70
2020/12/19 02:11:27;;;;;;;20.53;16.60;;;;;;;4.31;80.84;101458.78;5038588;28;20197;-71
2020/12/19 02:13:52;;;;;;;23.30;18.70;;;;;;;4.21;81.05;101458.34;5039813;28;20448;-70
2020/12/19 02:16:18;;;;;;;23.30;17.20;;;;;;;4.08;81.68;101468.88;5039578;28;20205;-71
2020/12/19 02:18:44;;;;;;;21.87;17.73;;;;;;;4.15;80.96;101459.75;5039248;28;20440;-70
2020/12/19 02:21:09;;;;;;;24.00;18.60;;;;;;;4.47;80.13;101452.63;5038932;28;20409;-70
2020/12/19 02:23:34;;;;;;;23.20;17.60;;;;;;;4.21;80.77;101454.88;5039168;28;20219;-71
2020/12/19 02:25:59;;;;;;;25.03;19.90;;;;;;;4.43;80.04;101453.31;5039118;28;20229;-70
2020/12/19 02:28:25;;;;;;;25.13;17.77;;;;;;;3.99;81.17;101446.13;5039711;28;20257;-70
2020/12/19 02:30:50;;;;;;;25.90;18.70;;;;;;;4.14;81.01;101453.72;5039075;28;20216;-69
2020/12/19 02:33:15;;;;;;;27.27;18.80;;;;;;;4.43;80.41;101449.00;5039501;28;20194;-70
2020/12/19 02:35:41;;;;;;;25.90;19.83;;;;;;;4.30;81.01;101451.84;5039536;28;20173;-74
2020/12/19 02:38:06;;;;;;;24.07;17.87;;;;;;;4.08;81.11;101447.38;5039174;28;20182;-73
2020/12/19 02:40:31;;;;;;;25.50;19.87;;;;;;;4.36;80.13;101447.84;5038795;28;20224;-70
2020/12/19 02:42:56;;;;;;;25.27;19.37;;;;;;;4.08;81.25;101458.56;5039219;28;20174;-69
2020/12/19 02:45:22;;;;;;;18.13;15.57;;;;;;;7.39;74.56;101443.56;5037993;28;20764;-70
2020/12/19 02:47:47;;;;;;;21.13;15.90;;;;;;;5.14;78.19;101456.44;5038705;28;20173;-70
2020/12/19 02:50:12;;;;;;;21.33;16.53;;;;;;;4.63;79.32;101449.94;5038975;28;20174;-70
2020/12/19 02:52:37;;;;;;;24.33;17.73;;;;;;;4.67;78.81;101458.72;5038828;28;20167;-69
2020/12/19 02:55:03;;;;;;;22.97;17.43;;;;;;;4.49;79.11;101453.56;5038757;28;20257;-70
2020/12/19 02:57:28;;;;;;;23.63;18.63;;;;;;;4.51;79.17;101457.13;5039095;28;20176;-70
2020/12/19 02:59:53;;;;;;;24.40;18.60;;;;;;;4.44;80.16;101449.88;5038557;28;20181;-71
2020/12/19 03:02:19;;;;;;;25.80;19.07;;;;;;;4.34;79.92;101449.50;5038588;28;20202;-69
2020/12/19 03:04:44;;;;;;;23.73;19.47;;;;;;;4.28;80.60;101449.19;5038885;28;20173;-70
2020/12/19 03:07:09;;;;;;;25.00;20.73;;;;;;;4.49;79.73;101453.56;5038501;28;20181;-70
2020/12/19 03:09:35;;;;;;;28.17;20.90;;;;;;;4.28;80.47;101453.47;5038188;28;20169;-70
2020/12/19 03:12:00;;;;;;;28.80;20.50;;;;;;;4.43;79.62;101450.72;5038796;28;20535;-69
2020/12/19 03:14:25;;;;;;;26.23;20.57;;;;;;;4.22;81.27;101447.22;5038428;28;20216;-70
2020/12/19 03:16:51;;;;;;;27.13;20.53;;;;;;;4.26;81.88;101445.63;5038255;28;20261;-69
2020/12/19 03:19:16;;;;;;;25.73;20.37;;;;;;;4.33;81.63;101439.06;5038568;28;20201;-70
2020/12/19 03:21:42;;;;;;;27.97;20.03;;;;;;;4.31;80.38;101436.41;5038285;28;20418;-70
2020/12/19 03:24:07;;;;;;;26.67;20.30;;;;;;;4.28;80.60;101433.69;5038047;28;20603;-69
2020/12/19 03:26:32;;;;;;;30.40;20.47;;;;;;;4.08;81.39;101432.75;5038325;28;20357;-70
2020/12/19 03:28:58;;;;;;;26.47;21.00;;;;;;;4.29;81.19;101422.56;5038071;28;20194;-70
2020/12/19 03:31:23;;;;;;;27.03;21.00;;;;;;;4.28;80.65;101423.38;5037996;28;20174;-69
2020/12/19 03:33:48;;;;;;;29.30;21.50;;;;;;;4.36;80.57;101429.78;5038223;28;20186;-70
2020/12/19 03:36:14;;;;;;;27.50;20.73;;;;;;;4.17;81.02;101415.13;5037964;28;20184;-69
2020/12/19 03:38:39;;;;;;;29.37;21.50;;;;;;;4.16;81.56;101418.53;5037780;28;20170;-69
2020/12/19 03:41:05;;;;;;;31.00;21.80;;;;;;;4.16;81.03;101415.06;5038050;28;20162;-69
2020/12/19 03:43:30;;;;;;;30.40;21.67;;;;;;;4.08;81.39;101413.84;5037126;28;20224;-70
2020/12/19 03:45:55;;;;;;;29.00;20.90;;;;;;;4.14;80.54;101408.94;5037648;28;20324;-70
2020/12/19 03:48:21;;;;;;;27.73;22.03;;;;;;;4.28;81.05;101409.59;5038124;28;20299;-70
2020/12/19 03:50:47;;;;;;;28.20;21.90;;;;;;;4.24;80.98;101407.69;5035888;28;20178;-69
2020/12/19 03:53:12;;;;;;;31.37;22.10;;;;;;;4.28;80.89;101397.56;5017576;28;20429;-69
2020/12/19 03:55:38;;;;;;;28.80;20.90;;;;;;;3.89;81.79;101402.63;5029206;28;20205;-71
2020/12/19 03:58:03;;;;;;;30.13;21.90;;;;;;;4.09;81.86;101393.25;5037677;28;20216;-70
2020/12/19 04:00:28;;;;;;;32.30;22.23;;;;;;;4.07;81.77;101394.88;5027003;28;20183;-70
2020/12/19 04:02:54;;;;;;;32.10;22.63;;;;;;;4.15;81.45;101396.09;5025289;28;20495;-70
2020/12/19 04:05:19;;;;;;;35.67;25.00;;;;;;;4.37;81.15;101390.25;5027068;28;20210;-70
2020/12/19 04:07:44;;;;;;;35.43;23.43;;;;;;;4.22;80.59;101389.53;5034673;28;20189;-70
2020/12/19 04:10:10;;;;;;;33.30;23.10;;;;;;;4.11;81.35;101393.31;5037054;28;20543;-70
2020/12/19 04:12:35;;;;;;;31.97;22.30;;;;;;;4.22;81.56;101386.94;5037253;28;20581;-70
2020/12/19 04:15:02;;;;;;;32.83;23.17;;;;;;;4.05;81.72;101384.47;5036996;28;20165;-69
2020/12/19 04:17:27;;;;;;;33.00;22.60;;;;;;;4.27;80.31;101375.16;5037627;28;20188;-70
2020/12/19 04:19:52;;;;;;;34.70;23.60;;;;;;;4.29;80.37;101373.53;5037184;28;20412;-69
2020/12/19 04:22:18;;;;;;;31.10;24.07;;;;;;;4.55;79.52;101384.16;5037309;28;20248;-70
2020/12/19 04:24:43;;;;;;;32.97;22.60;;;;;;;4.17;80.44;101384.16;5037015;28;20225;-70
2020/12/19 04:27:08;;;;;;;34.07;24.43;;;;;;;4.37;80.53;101372.19;5037260;28;20170;-70
2020/12/19 04:29:34;;;;;;;32.07;23.17;;;;;;;4.11;81.64;101370.09;5036479;28;20499;-71
2020/12/19 04:31:59;;;;;;;31.43;22.93;;;;;;;4.13;81.42;101373.66;5037060;28;20189;-70
2020/12/19 04:34:25;;;;;;;33.80;23.00;;;;;;;3.99;81.57;101368.72;5036640;28;20245;-70
2020/12/19 04:36:51;;;;;;;34.53;23.03;;;;;;;4.04;81.86;101377.53;5037331;28;20218;-70
2020/12/19 04:39:17;;;;;;;34.40;24.30;;;;;;;3.98;82.19;101371.25;5036698;28;20429;-69
2020/12/19 04:41:42;;;;;;;36.07;23.33;;;;;;;4.05;81.46;101370.72;5036818;28;20432;-70
2020/12/19 04:44:08;;;;;;;37.17;25.07;;;;;;;3.97;81.29;101378.09;5037247;28;20224;-70
2020/12/19 04:46:37;;;;;;;30.80;22.63;;;;;;;3.82;82.17;101374.78;5036920;28;20478;-70
2020/12/19 04:49:03;;;;;;;36.10;24.77;;;;;;;4.02;81.62;101374.03;5036848;28;20178;-70
2020/12/19 04:51:28;;;;;;;40.77;24.70;;;;;;;3.97;81.92;101380.66;5036510;28;20420;-70
2020/12/19 04:53:57;;;;;;;34.43;23.13;;;;;;;4.11;82.14;101367.53;5036691;28;20194;-70
2020/12/19 04:56:23;;;;;;;32.20;23.67;;;;;;;4.19;81.80;101366.16;5036797;28;20190;-70
2020/12/19 04:58:59;;;;;;;33.30;23.50;;;;;;;4.09;81.84;101361.41;5036981;28;20431;-69
2020/12/19 05:01:24;;;;;;;32.70;23.43;;;;;;;4.26;80.96;101365.63;5036781;28;20417;-70
2020/12/19 05:03:53;;;;;;;35.00;24.13;;;;;;;4.05;82.03;101358.69;5036713;28;20730;-71
2020/12/19 05:06:27;;;;;;;37.07;23.50;;;;;;;4.07;82.35;101360.44;5036493;28;20204;-69
2020/12/19 05:08:53;;;;;;;37.67;27.00;;;;;;;3.96;82.66;101363.41;5036408;28;20421;-69
2020/12/19 05:11:21;;;;;;;36.03;24.10;;;;;;;3.92;83.01;101360.63;5036614;28;20416;-70
2020/12/19 05:13:46;;;;;;;37.47;25.47;;;;;;;3.98;82.43;101364.38;5036650;28;20669;-70
2020/12/19 05:16:13;;;;;;;38.10;25.97;;;;;;;3.86;82.13;101376.72;5036992;28;20470;-70
2020/12/19 05:18:39;;;;;;;39.73;25.00;;;;;;;4.11;81.98;101352.91;5036570;28;20406;-70
2020/12/19 05:21:06;;;;;;;42.53;26.10;;;;;;;4.13;82.42;101348.72;5036446;28;20499;-70
2020/12/19 05:23:33;;;;;;;39.23;24.77;;;;;;;4.08;82.05;101347.63;5036819;28;20467;-70
2020/12/19 05:25:58;;;;;;;37.67;24.37;;;;;;;3.97;82.90;101348.84;5036410;28;20464;-71
2020/12/19 05:28:24;;;;;;;42.10;25.47;;;;;;;3.99;82.65;101358.41;5036434;28;20417;-69
2020/12/19 05:30:49;;;;;;;41.97;24.83;;;;;;;4.11;81.77;101352.03;5036809;28;20254;-70
2020/12/19 05:33:15;;;;;;;35.60;24.70;;;;;;;4.01;81.45;101364.50;5035681;28;20185;-70
2020/12/19 05:35:41;;;;;;;36.00;22.97;;;;;;;4.14;82.48;101360.81;5036500;28;20328;-70
2020/12/19 05:38:06;;;;;;;37.93;26.37;;;;;;;4.01;81.38;101358.47;5036896;28;20408;-70
2020/12/19 05:40:32;;;;;;;34.47;23.70;;;;;;;4.01;82.06;101351.59;5036398;28;20253;-70
2020/12/19 05:42:58;;;;;;;38.20;24.47;;;;;;;4.20;81.63;101361.06;5036513;28;20257;-70
2020/12/19 05:45:24;;;;;;;39.23;25.70;;;;;;;4.21;80.57;101349.94;5036669;28;20544;-72
2020/12/19 05:47:51;;;;;;;39.67;25.30;;;;;;;4.32;80.70;101355.59;5039628;28;20562;-70
2020/12/19 05:50:17;;;;;;;32.70;23.47;;;;;;;4.05;81.66;101352.66;5039843;28;20490;-70
2020/12/19 05:52:42;;;;;;;36.93;25.23;;;;;;;4.41;80.77;101354.22;5039459;28;20675;-70
2020/12/19 05:55:12;;;;;;;37.77;24.43;;;;;;;4.22;80.85;101351.72;5039805;28;20416;-70
2020/12/19 05:57:39;;;;;;;36.33;24.87;;;;;;;3.94;81.30;101357.31;5039757;28;20181;-70
2020/12/19 06:00:07;;;;;;;38.33;25.10;;;;;;;4.13;81.05;101348.72;5040005;28;20405;-70
2020/12/19 06:02:35;;;;;;;38.73;26.10;;;;;;;4.17;81.43;101349.75;5039609;28;20413;-70
2020/12/19 06:05:01;;;;;;;35.33;22.93;;;;;;;4.32;81.35;101345.28;5039512;28;20559;-70
2020/12/19 06:07:29;;;;;;;32.97;22.90;;;;;;;4.12;81.10;101340.91;5039920;28;20689;-70
2020/12/19 06:09:54;;;;;;;34.40;23.97;;;;;;;4.31;81.28;101337.47;5039462;28;20413;-70
2020/12/19 06:12:29;;;;;;;35.10;24.00;;;;;;;4.34;80.55;101335.00;5039658;28;20436;-70
2020/12/19 06:14:55;;;;;;;37.83;25.10;;;;;;;4.22;81.55;101330.16;5038648;28;20292;-69
2020/12/19 06:17:31;;;;;;;36.83;24.30;;;;;;;4.16;81.88;101327.34;5038474;28;20413;-70
2020/12/19 06:20:01;;;;;;;36.17;24.17;;;;;;;4.31;80.58;101325.44;5039164;28;20184;-70
2020/12/19 06:22:30;;;;;;;32.83;24.07;;;;;;;4.37;80.56;101325.72;5038615;28;20420;-69
2020/12/19 06:24:56;;;;;;;40.83;24.80;;;;;;;4.49;80.03;101320.22;5039129;28;20497;-70
2020/12/19 06:27:21;;;;;;;38.30;25.80;;;;;;;4.41;80.35;101325.84;5039211;28;20417;-69
2020/12/19 06:29:47;;;;;;;32.77;23.27;;;;;;;4.30;80.02;101331.44;5039061;28;20442;-69
2020/12/19 06:32:19;;;;;;;37.27;25.10;;;;;;;4.42;80.51;101318.16;5039033;28;20534;-69
2020/12/19 06:34:44;;;;;;;35.70;24.40;;;;;;;4.13;81.70;101319.47;5039060;28;20170;-70
2020/12/19 06:37:12;;;;;;;33.30;25.03;;;;;;;4.51;80.10;101322.84;5039326;28;20432;-70
2020/12/19 06:39:38;;;;;;;33.87;24.10;;;;;;;4.28;80.60;101324.44;5038074;28;20185;-70
2020/12/19 06:42:03;;;;;;;36.67;22.70;;;;;;;4.47;80.65;101314.09;5038830;28;20779;-70
2020/12/19 06:44:32;;;;;;;32.47;23.23;;;;;;;4.11;81.22;101315.91;5039204;28;20182;-69
2020/12/19 06:47:00;;;;;;;34.40;23.40;;;;;;;4.36;80.03;101323.94;5038803;28;20193;-70
2020/12/19 06:49:27;;;;;;;35.47;22.60;;;;;;;4.33;80.19;101323.81;5038673;28;20746;-70
2020/12/19 06:52:08;;;;;;;35.33;25.30;;;;;;;4.61;79.86;101325.00;5039163;28;20462;-70
2020/12/19 06:54:41;;;;;;;38.20;24.07;;;;;;;4.42;80.30;101322.44;5038775;28;20652;-70
2020/12/19 06:57:20;;;;;;;32.60;21.90;;;;;;;4.28;80.55;101320.13;5038451;28;20413;-70
2020/12/19 06:59:45;;;;;;;37.27;23.50;;;;;;;4.39;80.66;101312.88;5038791;28;20415;-70
2020/12/19 07:02:18;;;;;;;33.63;23.30;;;;;;;4.29;80.99;101319.34;5038538;28;20815;-70
2020/12/19 07:04:43;;;;;;;39.57;23.77;;;;;;;4.31;80.31;101327.13;5038522;28;20169;-70
2020/12/19 07:07:11;;;;;;;34.73;22.70;;;;;;;4.16;80.60;101324.75;5038427;28;20446;-70
2020/12/19 07:09:37;;;;;;;36.10;23.40;;;;;;;4.22;80.87;101314.69;5038349;28;20193;-71
2020/12/19 07:12:03;;;;;;;34.70;23.53;;;;;;;4.35;79.96;101317.00;5038407;28;20504;-70
2020/12/19 07:14:41;;;;;;;32.87;22.67;;;;;;;4.22;80.84;101322.44;5038621;28;20482;-70
2020/12/19 07:17:19;;;;;;;44.60;25.57;;;;;;;4.25;81.09;101309.69;5038525;28;20185;-69
2020/12/19 07:19:46;;;;;;;35.03;23.33;;;;;;;4.23;80.88;101308.72;5038075;28;20413;-71
2020/12/19 07:22:11;;;;;;;34.50;23.13;;;;;;;4.25;80.50;101316.53;5037161;28;20429;-70
2020/12/19 07:24:37;;;;;;;34.50;22.37;;;;;;;4.10;80.90;101321.88;5038134;28;20457;-70
2020/12/19 07:27:02;;;;;;;35.43;22.60;;;;;;;4.24;80.02;101315.66;5038497;28;20213;-70
2020/12/19 07:29:27;;;;;;;35.03;23.33;;;;;;;4.23;80.24;101326.78;5037861;28;20205;-70
2020/12/19 07:31:55;;;;;;;32.00;23.63;;;;;;;3.95;81.01;101317.81;5038098;28;20443;-71
2020/12/19 07:34:21;;;;;;;38.13;24.30;;;;;;;4.17;81.14;101323.94;5037719;28;20166;-70
2020/12/19 07:36:48;;;;;;;37.40;23.37;;;;;;;4.39;80.58;101313.75;5038214;28;20428;-70
2020/12/19 07:39:15;;;;;;;34.43;23.47;;;;;;;4.25;79.76;101319.09;5037834;28;20429;-69
2020/12/19 07:41:43;;;;;;;34.50;23.60;;;;;;;4.37;79.90;101320.53;5037706;28;20413;-69
2020/12/19 07:44:16;;;;;;;34.93;23.83;;;;;;;4.19;80.74;101319.72;5037891;28;20433;-70
2020/12/19 07:46:53;;;;;;;34.90;25.07;;;;;;;4.35;79.87;101326.44;5037737;28;20496;-69
2020/12/19 07:49:27;;;;;;;33.57;24.40;;;;;;;4.25;80.38;101325.16;5037171;28;20816;-70
2020/12/19 07:52:15;;;;;;;37.67;23.50;;;;;;;4.42;79.96;101322.44;5037894;28;20641;-70
2020/12/19 07:54:51;;;;;;;31.03;23.03;;;;;;;4.23;80.19;101324.19;5037867;28;20421;-70
2020/12/19 07:57:16;;;;;;;33.47;22.80;;;;;;;4.58;79.71;101311.09;5037782;28;20508;-70
2020/12/19 07:59:42;;;;;;;34.13;23.00;;;;;;;4.50;79.40;101323.66;5036874;28;20417;-69
2020/12/19 08:02:09;;;;;;;35.17;22.77;;;;;;;4.29;79.72;101323.59;5036826;28;20162;-70
2020/12/19 08:04:35;;;;;;;30.87;22.33;;;;;;;4.38;79.98;101316.25;5037513;28;20701;-69
2020/12/19 08:07:00;;;;;;;34.30;23.37;;;;;;;4.37;79.65;101315.38;5037509;28;20522;-70
2020/12/19 08:09:26;;;;;;;27.73;20.93;;;;;;;4.60;78.79;101317.19;5036835;28;20197;-69
2020/12/19 08:11:52;;;;;;;30.50;21.30;;;;;;;4.50;78.82;101314.22;5037711;28;20524;-71
2020/12/19 08:14:18;;;;;;;33.90;22.70;;;;;;;4.82;78.83;101306.97;5037263;28;20170;-71
2020/12/19 08:16:44;;;;;;;30.30;21.90;;;;;;;4.72;78.89;101323.78;5037380;28;20417;-70
2020/12/19 08:19:11;;;;;;;30.70;21.30;;;;;;;4.80;78.14;101313.75;5036739;28;20420;-71
2020/12/19 08:21:37;;;;;;;27.77;20.67;;;;;;;4.86;78.16;101324.38;5036534;28;20453;-71
2020/12/19 08:24:03;;;;;;;34.07;21.57;;;;;;;4.99;78.17;101314.53;5036457;28;20461;-71
2020/12/19 08:26:28;;;;;;;31.10;21.87;;;;;;;5.03;77.39;101312.16;5036784;28;20455;-71
2020/12/19 08:29:07;;;;;;;30.90;22.80;;;;;;;4.99;77.51;101309.38;5037021;28;20595;-71
2020/12/19 08:31:33;;;;;;;28.80;20.07;;;;;;;4.61;79.08;101301.75;5037286;28;20448;-70
2020/12/19 08:34:01;;;;;;;28.20;19.47;;;;;;;5.04;77.73;101311.31;5037097;28;20455;-71
2020/12/19 08:36:27;;;;;;;24.10;18.53;;;;;;;5.57;75.44;101300.50;5036488;28;20421;-71
2020/12/19 08:39:11;;;;;;;24.80;19.97;;;;;;;7.04;70.64;101293.72;5037226;28;20443;-70
2020/12/19 08:41:36;;;;;;;20.90;17.17;;;;;;;7.41;68.44;101292.31;5037073;28;20507;-70
2020/12/19 08:44:01;;;;;;;22.50;17.30;;;;;;;7.93;66.21;101294.72;5037112;28;20421;-71
2020/12/19 08:46:29;;;;;;;18.77;15.37;;;;;;;8.37;64.55;101292.50;5037026;28;20242;-71
2020/12/19 08:49:00;;;;;;;16.50;14.80;;;;;;;8.09;64.93;101304.72;5036901;28;20166;-71
2020/12/19 08:51:25;;;;;;;17.47;15.20;;;;;;;8.35;64.06;101295.88;5037270;28;20428;-69
2020/12/19 08:53:50;;;;;;;16.73;15.03;;;;;;;8.55;64.37;101294.78;5036724;28;20411;-71
2020/12/19 08:56:17;;;;;;;15.63;14.07;;;;;;;9.29;61.31;101282.72;5036959;28;20243;-71
2020/12/19 08:58:51;;;;;;;14.63;13.13;;;;;;;9.42;60.86;101281.31;5037122;28;20174;-71
2020/12/19 09:01:16;;;;;;;15.80;14.10;;;;;;;9.74;58.83;101278.53;5036875;28;20403;-70
2020/12/19 09:03:43;;;;;;;15.67;14.00;;;;;;;9.47;60.53;101279.69;5036866;28;20471;-71
2020/12/19 09:06:12;;;;;;;15.10;13.70;;;;;;;9.65;59.04;101279.22;5036644;28;20292;-71
2020/12/19 09:08:43;;;;;;;15.27;13.67;;;;;;;9.97;58.50;101266.00;5036591;28;20416;-71
2020/12/19 09:11:24;;;;;;;14.80;13.20;;;;;;;9.64;59.76;101287.00;5036922;28;20856;-70
2020/12/19 09:13:50;;;;;;;16.30;13.97;;;;;;;10.24;57.30;101286.53;5036886;28;20797;-71
2020/12/19 09:16:15;;;;;;;15.97;14.20;;;;;;;9.81;58.08;101271.72;5036879;28;20438;-70
2020/12/19 09:18:40;;;;;;;15.90;14.30;;;;;;;9.26;60.54;101280.06;5035984;28;20182;-70
2020/12/19 09:21:07;;;;;;;16.17;14.47;;;;;;;9.35;60.34;101282.00;5038512;28;20182;-71
2020/12/19 09:23:33;;;;;;;17.17;14.70;;;;;;;10.28;56.68;101267.50;5040174;28;20174;-70
2020/12/19 09:26:00;;;;;;;15.53;14.00;;;;;;;11.03;54.88;101269.72;5040439;28;20496;-71
2020/12/19 09:28:27;;;;;;;14.60;13.10;;;;;;;11.39;53.41;101260.72;5040457;28;20171;-70
2020/12/19 09:30:53;;;;;;;14.53;13.13;;;;;;;11.59;52.54;101250.53;5040243;28;20417;-70
2020/12/19 09:33:19;;;;;;;14.70;13.20;;;;;;;11.07;54.38;101255.88;5040287;28;20424;-69
2020/12/19 09:35:44;;;;;;;15.77;13.43;;;;;;;11.52;52.82;101253.91;5040654;28;20409;-71
2020/12/19 09:38:10;;;;;;;15.17;12.90;;;;;;;11.56;52.53;101249.63;5040087;28;20409;-71
2020/12/19 09:40:35;;;;;;;14.90;13.40;;;;;;;11.90;50.79;101247.44;5040036;28;20174;-70
2020/12/19 09:43:01;;;;;;;15.30;13.70;;;;;;;11.33;52.22;101241.47;5040498;28;20197;-70
2020/12/19 09:45:26;;;;;;;14.13;12.70;;;;;;;12.10;51.13;101242.50;5039790;28;20541;-70
2020/12/19 09:47:53;;;;;;;13.80;12.50;;;;;;;12.19;50.23;101237.38;5040019;28;20356;-71
2020/12/19 09:50:18;;;;;;;14.47;13.07;;;;;;;12.89;48.49;101231.03;5040314;28;20257;-70
2020/12/19 09:52:44;;;;;;;15.60;14.10;;;;;;;12.39;49.87;101234.06;5039980;28;20761;-70
2020/12/19 09:55:09;;;;;;;17.90;13.70;;;;;;;12.64;49.28;101235.19;5039873;28;20170;-71
2020/12/19 09:57:35;;;;;;;15.47;13.87;;;;;;;11.73;52.01;101236.78;5040219;28;20170;-70
2020/12/19 10:00:00;;;;;;;15.47;13.73;;;;;;;11.42;51.87;101236.34;5039786;28;20439;-71
2020/12/19 10:02:26;;;;;;;15.63;13.60;;;;;;;12.16;51.35;101236.44;5039924;28;20182;-72
2020/12/19 10:04:51;;;;;;;15.53;14.13;;;;;;;11.73;52.03;101229.84;5040038;28;20174;-71
2020/12/19 10:07:17;;;;;;;15.73;14.00;;;;;;;12.49;49.80;101229.81;5039823;28;20178;-71
2020/12/19 10:09:42;;;;;;;14.50;13.10;;;;;;;12.06;50.73;101236.34;5039619;28;20166;-70
2020/12/19 10:12:08;;;;;;;15.30;13.80;;;;;;;12.56;50.04;101221.19;5039873;28;20217;-70
2020/12/19 10:14:33;;;;;;;15.10;13.60;;;;;;;11.61;52.62;101235.75;5039301;28;20204;-70
2020/12/19 10:16:58;;;;;;;14.67;13.27;;;;;;;12.54;49.59;101222.88;5039436;28;20177;-70
2020/12/19 10:19:24;;;;;;;14.77;12.67;;;;;;;12.58;50.20;101208.97;5039681;28;20159;-70
2020/12/19 10:21:49;;;;;;;14.43;13.03;;;;;;;12.44;50.45;101195.78;5039500;28;20170;-70
2020/12/19 10:24:14;;;;;;;15.30;13.90;;;;;;;12.21;50.69;101206.03;5039332;28;20284;-71
2020/12/19 10:26:39;;;;;;;14.70;13.30;;;;;;;12.35;50.17;101191.31;5039566;28;20244;-71
2020/12/19 10:29:05;;;;;;;14.73;13.30;;;;;;;12.40;49.81;101192.25;5038803;28;20437;-71
2020/12/19 10:31:30;;;;;;;15.47;13.93;;;;;;;13.04;48.55;101192.75;5038866;28;20535;-70
2020/12/19 10:33:56;;;;;;;14.53;13.10;;;;;;;12.87;48.97;101198.75;5038942;28;20193;-70
2020/12/19 10:36:21;;;;;;;14.37;13.07;;;;;;;12.46;50.01;101199.28;5039009;28;20170;-72
2020/12/19 10:38:47;;;;;;;15.63;14.07;;;;;;;12.61;49.49;101198.53;5038670;28;20618;-70
2020/12/19 10:41:12;;;;;;;14.50;13.20;;;;;;;12.40;50.32;101194.00;5039297;28;20170;-70
2020/12/19 10:43:39;;;;;;;14.03;12.73;;;;;;;12.40;50.63;101205.31;5039044;28;20564;-69
2020/12/19 10:46:04;;;;;;;14.67;13.27;;;;;;;12.61;49.78;101188.06;5037651;28;20531;-74
2020/12/19 10:48:30;;;;;;;14.60;13.20;;;;;;;13.60;47.87;101188.75;5038940;28;20886;-70
2020/12/19 10:50:55;;;;;;;14.90;13.50;;;;;;;12.73;49.36;101188.19;5038767;28;20171;-71
2020/12/19 10:53:20;;;;;;;15.27;13.87;;;;;;;13.06;48.68;101191.91;5038611;28;20181;-72
2020/12/19 10:55:45;;;;;;;14.43;13.03;;;;;;;12.57;49.54;101191.53;5039040;28;20174;-71
2020/12/19 10:58:11;;;;;;;14.47;13.07;;;;;;;12.69;50.55;101186.41;5038391;28;20200;-71
2020/12/19 11:00:36;;;;;;;15.03;13.53;;;;;;;12.48;51.17;101186.25;5038392;28;20543;-71
2020/12/19 11:03:01;;;;;;;15.40;13.83;;;;;;;12.04;51.69;101185.81;5038819;28;20182;-71
2020/12/19 11:05:27;;;;;;;14.97;13.53;;;;;;;12.03;52.19;101178.81;5038381;28;20190;-72
2020/12/19 11:07:52;;;;;;;15.73;14.13;;;;;;;12.18;52.48;101178.09;5037888;28;20182;-72
2020/12/19 11:10:17;;;;;;;15.60;14.10;;;;;;;13.05;50.15;101173.59;5036981;28;20166;-72
2020/12/19 11:12:43;;;;;;;15.50;14.00;;;;;;;12.40;51.61;101180.94;5037649;28;20539;-73
2020/12/19 11:15:08;;;;;;;15.20;13.60;;;;;;;12.63;51.38;101171.53;5037671;28;20167;-72